Paeonian Springs, Virginia
Current Conditions -  °F | °C
As of 3:35 PM on Saturday 20 Dec 2014 (Local Time) from KJYO Reporting Station
Overcast Overcast  
Wind Chill: 36°   Ceiling: 12000
Heat Index: 36°   Visibility: 10mi
Dew Point: 27°   Wind: 0mph
Humidity: 70%   Direction: NA
Pressure: 30.27"   Gusts: NA
Location:  39.15°N, 77.62°W
Report Text: KJYO 202035Z AUTO 00000KT 10SM OVC120 02/M03 A3027 RMK AO2
Loading
Personal Weather Stations






























Interactive Weather Map New forecast layout! Learn more

10-Day Weather Forecast

Advertisements
Track Severe Weather on mobile